Time;durP1;ratioP1;P1;durP2;ratioP2;P2;SDS_P1;SDS_P2;PMS_P1;PMS_P2;Temp;Humidity;BMP_temperature;BMP_pressure;BME280_temperature;BME280_humidity;BME280_pressure;Samples;Min_cycle;Max_cycle;Signal;HPM_P1;HPM_P2
2023/09/23 00:02:18;;;;;;;40.70;31.95;;;;;;;9.31;100.00;100569.00;5025565;28;20059;-68
2023/09/23 00:04:43;;;;;;;41.20;32.05;;;;;;;9.37;100.00;100568.72;5026053;28;20118;-68
2023/09/23 00:07:09;;;;;;;43.50;33.30;;;;;;;9.33;100.00;100574.25;5026028;28;20022;-68
2023/09/23 00:09:37;;;;;;;41.33;33.50;;;;;;;9.32;100.00;100567.22;5026713;28;20459;-68
2023/09/23 00:12:03;;;;;;;50.00;34.83;;;;;;;9.32;100.00;100568.09;5026509;28;20043;-68
2023/09/23 00:14:29;;;;;;;46.08;33.35;;;;;;;9.30;100.00;100579.72;5025953;28;20030;-68
2023/09/23 00:16:55;;;;;;;46.45;35.25;;;;;;;9.24;100.00;100575.59;5025623;28;20367;-68
2023/09/23 00:19:20;;;;;;;42.58;33.28;;;;;;;9.25;100.00;100577.28;5025978;28;20384;-68
2023/09/23 00:21:45;;;;;;;42.38;32.47;;;;;;;9.16;100.00;100573.31;5008196;28;20032;-69
2023/09/23 00:24:13;;;;;;;46.25;32.67;;;;;;;9.19;100.00;100582.88;5025546;28;20465;-69
2023/09/23 00:26:38;;;;;;;42.78;32.90;;;;;;;9.17;100.00;100582.13;5026535;28;20328;-67
2023/09/23 00:29:04;;;;;;;43.35;32.90;;;;;;;9.21;100.00;100579.25;5026377;28;20480;-69
2023/09/23 00:31:30;;;;;;;45.05;34.55;;;;;;;9.21;100.00;100583.69;5025890;28;20072;-68
2023/09/23 00:33:55;;;;;;;40.90;33.67;;;;;;;9.21;100.00;100586.34;5026001;28;20395;-68
2023/09/23 00:36:22;;;;;;;50.45;35.63;;;;;;;9.14;100.00;100585.78;5025939;28;20040;-68
2023/09/23 00:38:47;;;;;;;45.28;33.40;;;;;;;9.10;100.00;100575.38;5012684;28;20118;-69
2023/09/23 00:41:13;;;;;;;40.83;33.20;;;;;;;9.12;100.00;100592.13;5025840;28;20060;-71
2023/09/23 00:43:40;;;;;;;40.55;31.33;;;;;;;9.12;100.00;100590.31;5025266;28;20106;-69
2023/09/23 00:46:06;;;;;;;41.65;33.10;;;;;;;9.11;100.00;100596.56;5024251;28;20164;-69
2023/09/23 00:48:39;;;;;;;43.20;32.65;;;;;;;9.14;100.00;100596.41;5025307;28;20048;-68
2023/09/23 00:51:09;;;;;;;48.90;33.97;;;;;;;9.15;100.00;100597.25;5012111;28;20017;-69
2023/09/23 00:53:39;;;;;;;47.47;32.70;;;;;;;9.13;100.00;100592.03;5024815;28;20021;-68
2023/09/23 00:56:09;;;;;;;46.22;31.55;;;;;;;9.20;100.00;100597.91;5025408;28;20174;-68
2023/09/23 00:58:38;;;;;;;45.67;30.90;;;;;;;9.19;100.00;100589.06;5025630;28;20022;-68
2023/09/23 01:01:07;;;;;;;45.50;30.90;;;;;;;9.19;100.00;100593.50;5025672;28;20478;-68
2023/09/23 01:03:32;;;;;;;47.95;31.60;;;;;;;9.18;100.00;100591.81;5026137;28;20025;-68
2023/09/23 01:06:14;;;;;;;48.17;29.45;;;;;;;9.15;100.00;100598.09;5024791;28;20025;-67
2023/09/23 01:08:42;;;;;;;44.65;28.95;;;;;;;9.19;100.00;100605.00;4988943;28;20022;-67
2023/09/23 01:11:08;;;;;;;48.00;28.73;;;;;;;9.15;100.00;100603.41;5022826;28;20043;-67
2023/09/23 01:13:37;;;;;;;42.72;27.45;;;;;;;9.22;100.00;100604.00;5025831;28;20025;-67
2023/09/23 01:16:07;;;;;;;42.20;27.65;;;;;;;9.21;100.00;100607.59;5007563;28;20060;-67
2023/09/23 01:18:34;;;;;;;47.15;27.90;;;;;;;9.21;100.00;100616.41;5025577;28;20029;-67
2023/09/23 01:21:01;;;;;;;44.63;26.20;;;;;;;9.23;100.00;100616.31;5004426;28;20042;-68
2023/09/23 01:23:27;;;;;;;41.97;26.23;;;;;;;9.25;100.00;100613.63;5018248;28;20037;-69
2023/09/23 01:25:52;;;;;;;41.05;25.40;;;;;;;9.23;100.00;100611.03;5007286;28;20022;-68
2023/09/23 01:28:18;;;;;;;40.58;24.15;;;;;;;9.20;100.00;100622.66;5024802;28;20025;-68
2023/09/23 01:30:44;;;;;;;38.15;23.83;;;;;;;9.21;100.00;100632.34;5024325;28;20040;-68
2023/09/23 01:33:14;;;;;;;39.03;23.98;;;;;;;9.19;100.00;100630.69;5024770;28;20065;-68
2023/09/23 01:35:40;;;;;;;38.88;24.10;;;;;;;9.19;100.00;100636.00;5024891;28;20045;-68
2023/09/23 01:38:06;;;;;;;39.10;23.50;;;;;;;9.17;100.00;100633.44;5024699;28;20048;-68
2023/09/23 01:40:33;;;;;;;42.03;22.65;;;;;;;9.19;100.00;100630.69;5025481;28;20250;-67
2023/09/23 01:42:59;;;;;;;34.53;21.20;;;;;;;9.17;100.00;100633.44;5024616;28;20322;-68
2023/09/23 01:45:25;;;;;;;38.67;22.30;;;;;;;9.16;100.00;100634.38;4998125;28;20619;-70
2023/09/23 01:47:52;;;;;;;36.67;20.73;;;;;;;9.16;100.00;100631.72;5020532;28;20029;-69
2023/09/23 01:50:18;;;;;;;38.58;20.83;;;;;;;9.18;100.00;100634.28;5024796;28;20040;-68
2023/09/23 01:52:45;;;;;;;33.28;19.42;;;;;;;9.17;100.00;100643.19;5024642;28;20026;-68
2023/09/23 01:55:12;;;;;;;34.63;19.15;;;;;;;9.16;100.00;100638.81;5024368;28;20032;-68
2023/09/23 01:57:40;;;;;;;33.47;19.27;;;;;;;9.19;100.00;100628.88;5003347;28;20021;-68
2023/09/23 02:00:07;;;;;;;33.33;19.92;;;;;;;9.19;100.00;100647.47;5018952;28;20021;-67
2023/09/23 02:02:33;;;;;;;30.90;17.83;;;;;;;9.15;100.00;100645.91;5025353;28;20086;-68
2023/09/23 02:04:59;;;;;;;32.05;17.67;;;;;;;9.14;100.00;100648.66;5024776;28;20021;-68
2023/09/23 02:07:26;;;;;;;29.58;17.27;;;;;;;9.13;100.00;100650.44;5024504;28;20404;-68
2023/09/23 02:09:51;;;;;;;26.98;16.48;;;;;;;9.12;100.00;100651.38;5024524;28;20021;-68
2023/09/23 02:12:17;;;;;;;25.08;15.60;;;;;;;9.11;100.00;100659.41;5010018;28;20503;-69
2023/09/23 02:14:42;;;;;;;26.35;15.63;;;;;;;9.08;100.00;100654.25;5023819;28;20098;-67
2023/09/23 02:17:08;;;;;;;24.40;15.40;;;;;;;9.09;100.00;100661.28;5022901;28;20092;-67
2023/09/23 02:19:34;;;;;;;26.15;15.40;;;;;;;9.04;100.00;100655.34;5024825;28;20035;-68
2023/09/23 02:22:05;;;;;;;25.15;14.90;;;;;;;9.02;100.00;100660.69;5024034;28;20163;-68
2023/09/23 02:24:32;;;;;;;25.25;14.27;;;;;;;8.98;100.00;100664.44;5006557;28;20073;-67
2023/09/23 02:26:59;;;;;;;26.10;14.02;;;;;;;8.98;100.00;100669.75;5023514;28;20559;-68
2023/09/23 02:29:24;;;;;;;22.10;14.73;;;;;;;8.99;100.00;100671.50;5023793;28;20171;-68
2023/09/23 02:31:50;;;;;;;21.88;13.63;;;;;;;8.96;100.00;100676.94;5023964;28;20030;-67
2023/09/23 02:34:17;;;;;;;23.35;14.18;;;;;;;8.93;100.00;100677.94;5024271;28;20513;-67
2023/09/23 02:36:45;;;;;;;26.08;14.00;;;;;;;8.93;100.00;100688.53;5023755;28;20025;-67
2023/09/23 02:39:17;;;;;;;22.33;13.48;;;;;;;8.86;100.00;100687.13;5024032;28;20029;-67
2023/09/23 02:41:46;;;;;;;19.95;12.40;;;;;;;8.95;100.00;100681.38;5023057;28;20083;-68
2023/09/23 02:44:18;;;;;;;19.63;12.40;;;;;;;8.97;100.00;100691.94;5023871;28;20056;-67
2023/09/23 02:46:47;;;;;;;20.75;11.68;;;;;;;8.99;100.00;100690.06;5023596;28;20025;-68
2023/09/23 02:49:14;;;;;;;21.38;12.40;;;;;;;9.03;100.00;100694.31;5023859;28;20060;-68
2023/09/23 02:51:41;;;;;;;20.73;12.48;;;;;;;9.05;100.00;100702.19;5023059;28;20037;-67
2023/09/23 02:54:08;;;;;;;21.73;12.65;;;;;;;9.10;100.00;100702.84;5023159;28;20053;-67
2023/09/23 02:56:34;;;;;;;21.50;12.25;;;;;;;9.08;100.00;100700.25;5022895;28;20030;-68
2023/09/23 02:59:03;;;;;;;21.08;11.52;;;;;;;9.06;100.00;100701.25;5023328;28;20021;-67
2023/09/23 03:01:30;;;;;;;14.23;10.68;;;;;;;9.03;100.00;100704.03;5022792;28;20314;-67
2023/09/23 03:03:56;;;;;;;17.35;10.63;;;;;;;8.99;100.00;100711.31;5010555;28;20021;-68
2023/09/23 03:06:22;;;;;;;17.90;10.98;;;;;;;8.99;100.00;100708.66;5022769;28;20033;-68
2023/09/23 03:08:53;;;;;;;18.60;11.05;;;;;;;8.97;100.00;100715.81;5023163;28;20518;-67
2023/09/23 03:11:19;;;;;;;18.08;10.73;;;;;;;8.95;100.00;100717.69;5022460;28;20067;-67
2023/09/23 03:13:44;;;;;;;17.23;9.80;;;;;;;8.95;100.00;100726.50;5022809;28;20471;-67
2023/09/23 03:16:13;;;;;;;14.88;9.45;;;;;;;8.95;100.00;100721.22;5022694;28;20025;-69
2023/09/23 03:18:59;;;;;;;15.13;9.63;;;;;;;8.97;100.00;100721.97;5022958;28;20033;-70
2023/09/23 03:21:24;;;;;;;14.95;10.35;;;;;;;8.93;100.00;100720.41;5012519;28;20483;-69
2023/09/23 03:23:49;;;;;;;13.40;9.52;;;;;;;8.90;100.00;100717.03;5005060;28;20060;-68
2023/09/23 03:26:18;;;;;;;16.33;9.85;;;;;;;8.90;100.00;100720.56;5022753;28;20041;-68
2023/09/23 03:28:43;;;;;;;14.45;9.90;;;;;;;8.93;100.00;100720.41;5019283;28;20014;-67
2023/09/23 03:31:09;;;;;;;16.48;9.05;;;;;;;8.87;100.00;100723.34;5013402;28;20480;-68
2023/09/23 03:33:37;;;;;;;16.50;9.15;;;;;;;8.89;100.00;100728.56;5023247;28;20025;-68
2023/09/23 03:36:05;;;;;;;16.88;9.52;;;;;;;8.83;100.00;100718.25;5023784;28;20029;-68
2023/09/23 03:38:32;;;;;;;13.93;8.88;;;;;;;8.83;100.00;100721.75;5023758;28;20061;-67
2023/09/23 03:40:59;;;;;;;13.05;8.75;;;;;;;8.85;100.00;100722.53;5022682;28;20042;-68
2023/09/23 03:43:25;;;;;;;12.85;8.80;;;;;;;8.85;100.00;100730.50;5022756;28;20329;-68
2023/09/23 03:45:52;;;;;;;14.52;8.82;;;;;;;8.84;100.00;100733.25;5023146;28;20025;-68
2023/09/23 03:48:17;;;;;;;17.77;9.13;;;;;;;8.80;100.00;100732.50;5022625;28;20080;-68
2023/09/23 03:50:43;;;;;;;15.32;9.10;;;;;;;8.81;100.00;100731.56;5022539;28;20454;-67
2023/09/23 03:53:11;;;;;;;15.75;9.23;;;;;;;8.80;100.00;100732.50;5023043;28;20033;-68
2023/09/23 03:55:37;;;;;;;13.38;8.52;;;;;;;8.81;100.00;100738.69;5004167;28;20455;-68
2023/09/23 03:58:03;;;;;;;16.05;9.00;;;;;;;8.79;100.00;100744.06;5023439;28;20056;-68
2023/09/23 04:00:29;;;;;;;12.93;8.32;;;;;;;8.77;100.00;100745.06;5022822;28;20079;-67
2023/09/23 04:02:55;;;;;;;13.52;9.15;;;;;;;8.77;100.00;100737.09;5022604;28;20304;-68
2023/09/23 04:05:20;;;;;;;15.60;8.75;;;;;;;8.80;100.00;100740.47;5022484;28;20021;-69
2023/09/23 04:07:50;;;;;;;13.90;9.02;;;;;;;8.80;100.00;100753.75;5022807;28;20021;-70
2023/09/23 04:10:23;;;;;;;14.52;8.82;;;;;;;8.78;100.00;100741.47;5021986;28;20057;-68
2023/09/23 04:12:52;;;;;;;18.88;9.05;;;;;;;8.80;100.00;100755.53;5022184;28;20087;-68
2023/09/23 04:15:19;;;;;;;12.80;9.07;;;;;;;8.77;100.00;100756.53;5022607;28;20025;-68
2023/09/23 04:17:45;;;;;;;11.52;8.82;;;;;;;8.82;100.00;100764.28;5022182;28;20025;-67
2023/09/23 04:20:10;;;;;;;13.40;9.10;;;;;;;8.81;100.00;100759.91;5021695;28;20333;-67
2023/09/23 04:22:37;;;;;;;21.27;9.48;;;;;;;8.77;100.00;100767.13;5021486;28;20057;-67
2023/09/23 04:25:05;;;;;;;13.55;8.60;;;;;;;8.77;100.00;100772.44;5022034;28;20141;-68
2023/09/23 04:27:38;;;;;;;12.70;8.40;;;;;;;8.77;100.00;100767.13;5022201;28;20021;-67
2023/09/23 04:30:11;;;;;;;14.77;8.77;;;;;;;8.77;100.00;100774.25;5021908;28;20032;-66
2023/09/23 04:32:38;;;;;;;13.75;8.60;;;;;;;8.73;100.00;100773.50;5021510;28;20528;-68
2023/09/23 04:35:05;;;;;;;13.27;8.80;;;;;;;8.72;100.00;100777.97;5021667;28;20113;-68
2023/09/23 04:37:33;;;;;;;11.88;8.25;;;;;;;8.73;100.00;100789.44;5022244;28;20040;-68
2023/09/23 04:39:59;;;;;;;14.73;8.32;;;;;;;8.71;100.00;100786.00;5021109;28;20069;-67
2023/09/23 04:42:24;;;;;;;18.33;8.57;;;;;;;8.72;100.00;100796.53;5007235;28;20197;-68
2023/09/23 04:44:50;;;;;;;13.45;8.88;;;;;;;8.71;100.00;100799.28;5025386;28;20021;-70
2023/09/23 04:47:17;;;;;;;14.40;8.45;;;;;;;8.73;100.00;100794.75;5025344;28;20029;-69
2023/09/23 04:49:43;;;;;;;15.60;8.25;;;;;;;8.66;100.00;100786.22;5025108;28;20387;-68
2023/09/23 04:52:09;;;;;;;13.80;8.57;;;;;;;8.71;100.00;100804.56;5024526;28;20025;-68
2023/09/23 04:54:37;;;;;;;15.88;8.90;;;;;;;8.64;100.00;100797.81;5025642;28;20021;-67
2023/09/23 04:57:06;;;;;;;13.38;8.43;;;;;;;8.68;100.00;100802.06;5025877;28;20313;-68
2023/09/23 04:59:32;;;;;;;14.52;8.02;;;;;;;8.65;100.00;100802.19;5025839;28;20040;-69
2023/09/23 05:01:59;;;;;;;17.42;8.93;;;;;;;8.64;100.00;100803.97;5024968;28;20018;-68
2023/09/23 05:04:24;;;;;;;17.23;8.82;;;;;;;8.66;100.00;100807.44;5025268;28;20424;-68
2023/09/23 05:06:50;;;;;;;14.65;8.68;;;;;;;8.66;100.00;100811.88;5024714;28;20079;-67
2023/09/23 05:09:16;;;;;;;14.65;9.18;;;;;;;8.65;100.00;100821.63;5025362;28;20083;-67
2023/09/23 05:11:42;;;;;;;16.95;9.32;;;;;;;8.67;100.00;100824.22;5025030;28;20041;-68
2023/09/23 05:14:07;;;;;;;13.82;8.55;;;;;;;8.64;100.00;100825.19;5025293;28;20049;-68
2023/09/23 05:16:32;;;;;;;14.20;9.90;;;;;;;8.67;100.00;100838.34;5025891;28;20096;-67
2023/09/23 05:18:57;;;;;;;14.57;8.70;;;;;;;8.64;100.00;100840.25;5024776;28;20464;-67
2023/09/23 05:21:24;;;;;;;16.38;9.70;;;;;;;8.62;100.00;100847.44;5024434;28;20384;-68
2023/09/23 05:23:50;;;;;;;14.95;9.40;;;;;;;8.64;100.00;100850.88;5024702;28;20045;-68
2023/09/23 05:26:16;;;;;;;15.30;9.60;;;;;;;8.67;100.00;100856.06;5024816;28;20029;-66
2023/09/23 05:28:45;;;;;;;17.35;10.02;;;;;;;8.63;100.00;100863.28;5024416;28;20503;-68
2023/09/23 05:31:13;;;;;;;16.00;9.48;;;;;;;8.60;100.00;100863.41;5024774;28;20061;-68
2023/09/23 05:33:39;;;;;;;13.55;9.32;;;;;;;8.66;100.00;100872.91;5024129;28;20045;-68
2023/09/23 05:36:06;;;;;;;17.33;9.93;;;;;;;8.68;100.00;100873.69;5024749;28;20056;-68
2023/09/23 05:38:36;;;;;;;13.32;9.68;;;;;;;8.68;100.00;100876.34;5024841;28;20072;-68
2023/09/23 05:41:01;;;;;;;14.10;9.90;;;;;;;8.68;100.00;100876.34;5024951;28;20021;-68
2023/09/23 05:43:26;;;;;;;14.60;9.10;;;;;;;8.70;100.00;100879.81;5023841;28;20017;-67
2023/09/23 05:45:52;;;;;;;14.35;9.15;;;;;;;8.68;100.00;100890.47;5024044;28;20458;-69
2023/09/23 05:48:17;;;;;;;14.68;9.68;;;;;;;8.70;100.00;100896.59;5023396;28;20110;-68
2023/09/23 05:50:43;;;;;;;14.35;9.15;;;;;;;8.70;100.00;100895.72;5022981;28;20022;-67
2023/09/23 05:53:08;;;;;;;14.70;9.30;;;;;;;8.68;100.00;100886.97;5023688;28;20079;-68
2023/09/23 05:55:34;;;;;;;17.05;9.13;;;;;;;8.72;100.00;100900.03;5023681;28;20057;-68
2023/09/23 05:57:59;;;;;;;17.00;9.43;;;;;;;8.72;100.00;100896.50;5023608;28;20112;-67
2023/09/23 06:00:25;;;;;;;13.57;9.05;;;;;;;8.70;100.00;100903.69;5023649;28;20025;-68
2023/09/23 06:02:51;;;;;;;15.73;8.88;;;;;;;8.72;100.00;100908.00;5023656;28;20071;-68
2023/09/23 06:05:16;;;;;;;15.55;8.73;;;;;;;8.74;100.00;100915.91;5023221;28;20132;-68
2023/09/23 06:07:42;;;;;;;15.45;9.05;;;;;;;8.77;100.00;100925.50;5023717;28;20251;-68
2023/09/23 06:10:08;;;;;;;13.13;8.98;;;;;;;8.81;100.00;100924.47;5024020;28;20033;-68
2023/09/23 06:12:37;;;;;;;14.48;8.63;;;;;;;8.83;100.00;100931.44;5024732;28;20037;-67
2023/09/23 06:15:03;;;;;;;15.55;8.98;;;;;;;8.82;100.00;100936.78;5024723;28;20083;-67
2023/09/23 06:17:29;;;;;;;15.90;8.95;;;;;;;8.86;100.00;100939.28;5024150;28;20017;-67
2023/09/23 06:19:59;;;;;;;16.80;9.43;;;;;;;8.89;100.00;100939.13;5023426;28;20044;-67
2023/09/23 06:22:26;;;;;;;12.70;8.65;;;;;;;8.95;100.00;100948.66;5006043;28;20305;-67
2023/09/23 06:24:52;;;;;;;15.85;9.10;;;;;;;9.04;100.00;100947.38;5023952;28;20120;-67
2023/09/23 06:27:19;;;;;;;16.95;10.00;;;;;;;9.17;100.00;100949.44;5023547;28;20102;-68
2023/09/23 06:29:45;;;;;;;15.48;8.93;;;;;;;9.29;100.00;100950.69;5023471;28;20073;-67
2023/09/23 06:32:11;;;;;;;12.52;8.75;;;;;;;9.45;100.00;100959.72;5023681;28;20036;-67
2023/09/23 06:34:36;;;;;;;16.73;9.63;;;;;;;9.60;100.00;100966.13;4993647;28;20034;-69
2023/09/23 06:37:02;;;;;;;12.52;8.57;;;;;;;9.75;100.00;100972.56;5023289;28;20096;-68
2023/09/23 06:39:28;;;;;;;14.88;8.88;;;;;;;9.87;100.00;100974.66;5023428;28;20021;-69
2023/09/23 06:41:53;;;;;;;14.32;8.20;;;;;;;9.92;100.00;100971.78;5023516;28;20488;-68
2023/09/23 06:44:19;;;;;;;14.35;8.20;;;;;;;10.01;100.00;100984.66;5023582;28;20032;-67
2023/09/23 06:46:44;;;;;;;13.13;8.00;;;;;;;10.14;100.00;100988.47;5023396;28;20052;-67
2023/09/23 06:49:09;;;;;;;11.98;7.57;;;;;;;10.30;100.00;100996.63;5022622;28;20045;-68
2023/09/23 06:51:35;;;;;;;11.63;6.78;;;;;;;10.40;100.00;100995.25;5023351;28;20037;-68
2023/09/23 06:54:00;;;;;;;9.93;6.80;;;;;;;10.34;100.00;101000.00;5023783;28;20025;-67
2023/09/23 06:56:25;;;;;;;8.75;6.47;;;;;;;10.42;100.00;101004.03;5023457;28;20121;-67
2023/09/23 06:58:51;;;;;;;10.93;5.88;;;;;;;10.26;100.00;101011.00;5023365;28;20115;-68
2023/09/23 07:01:17;;;;;;;9.20;5.78;;;;;;;10.36;100.00;101006.97;5023243;28;20041;-67
2023/09/23 07:03:42;;;;;;;10.05;7.10;;;;;;;10.39;100.00;100998.00;5022041;28;20104;-66
2023/09/23 07:06:08;;;;;;;9.25;6.32;;;;;;;10.41;100.00;101002.31;5022971;28;20027;-68
2023/09/23 07:08:33;;;;;;;7.88;6.22;;;;;;;10.41;100.00;101015.63;5023383;28;20117;-68
2023/09/23 07:10:59;;;;;;;8.38;6.60;;;;;;;10.41;100.00;101002.31;5022928;28;20037;-67
2023/09/23 07:13:24;;;;;;;9.80;6.40;;;;;;;10.44;100.00;101015.44;5023100;28;20290;-68
2023/09/23 07:15:49;;;;;;;8.73;7.07;;;;;;;10.41;100.00;101017.44;5022360;28;20052;-67
2023/09/23 07:18:15;;;;;;;9.70;7.07;;;;;;;10.38;100.00;101026.41;5022530;28;20104;-67
2023/09/23 07:20:40;;;;;;;8.07;6.57;;;;;;;10.39;100.00;101030.78;5022875;28;20021;-67
2023/09/23 07:23:06;;;;;;;10.32;7.07;;;;;;;10.35;100.00;101018.56;5023080;28;20025;-68
2023/09/23 07:25:39;;;;;;;12.52;7.85;;;;;;;10.39;100.00;101038.75;5022879;28;20116;-68
2023/09/23 07:28:06;;;;;;;12.88;8.27;;;;;;;10.61;100.00;101038.59;5023806;28;20022;-68
2023/09/23 07:30:36;;;;;;;11.82;7.47;;;;;;;10.85;100.00;101054.34;5023367;28;20029;-67
2023/09/23 07:33:02;;;;;;;13.10;8.20;;;;;;;11.24;100.00;101054.16;5022800;28;20021;-68
2023/09/23 07:35:32;;;;;;;15.50;8.50;;;;;;;11.66;100.00;101063.56;5022556;28;20025;-68
2023/09/23 07:37:59;;;;;;;10.90;7.03;;;;;;;11.89;100.00;101051.75;5022727;28;20040;-69
2023/09/23 07:40:25;;;;;;;8.32;6.13;;;;;;;12.04;100.00;101058.06;5010014;28;20334;-67
2023/09/23 07:42:51;;;;;;;9.57;5.95;;;;;;;12.42;100.00;101066.69;5022916;28;20038;-67
2023/09/23 07:45:16;;;;;;;9.55;5.80;;;;;;;13.07;100.00;101062.06;5022752;28;20017;-70
2023/09/23 07:47:41;;;;;;;8.73;4.75;;;;;;;13.51;100.00;101066.69;5021987;28;20440;-68
2023/09/23 07:50:07;;;;;;;5.63;4.32;;;;;;;13.96;100.00;101067.50;5022492;28;20029;-68
2023/09/23 07:52:34;;;;;;;6.93;4.10;;;;;;;14.32;100.00;101069.72;5023067;28;20033;-68
2023/09/23 07:55:00;;;;;;;5.47;3.53;;;;;;;14.58;100.00;101076.13;5004802;28;20029;-68
2023/09/23 07:57:25;;;;;;;5.05;3.75;;;;;;;14.72;100.00;101083.31;5022148;28;20502;-68
2023/09/23 07:59:51;;;;;;;4.20;3.22;;;;;;;14.62;100.00;101083.00;5022536;28;20025;-69
2023/09/23 08:02:16;;;;;;;6.35;3.83;;;;;;;15.03;100.00;101092.03;5021742;28;20533;-68
2023/09/23 08:04:41;;;;;;;5.18;3.40;;;;;;;14.89;100.00;101091.09;5022411;28;20487;-68
2023/09/23 08:07:07;;;;;;;5.05;3.35;;;;;;;14.91;100.00;101101.72;5022466;28;20025;-68
2023/09/23 08:09:32;;;;;;;4.95;3.03;;;;;;;15.26;100.00;101103.91;4991452;28;20029;-68
2023/09/23 08:11:58;;;;;;;4.78;3.05;;;;;;;15.71;100.00;101099.97;5013532;28;20029;-69
2023/09/23 08:14:24;;;;;;;7.22;3.50;;;;;;;16.12;100.00;101104.31;5021812;28;20537;-68
2023/09/23 08:16:53;;;;;;;5.50;3.08;;;;;;;15.88;100.00;101115.81;5024639;28;20041;-68
2023/09/23 08:19:18;;;;;;;5.60;2.95;;;;;;;15.61;100.00;101118.50;5025939;28;20531;-68
2023/09/23 08:21:45;;;;;;;4.50;2.80;;;;;;;15.33;100.00;101132.03;5026146;28;20126;-67
2023/09/23 08:24:11;;;;;;;7.45;3.53;;;;;;;15.40;100.00;101126.16;5025811;28;20056;-68
2023/09/23 08:26:36;;;;;;;6.60;3.45;;;;;;;15.58;100.00;101142.00;5026086;28;20037;-68
2023/09/23 08:29:02;;;;;;;6.25;3.10;;;;;;;16.03;100.00;101140.72;5026586;28;20021;-68
2023/09/23 08:31:28;;;;;;;5.38;3.00;;;;;;;16.12;100.00;101147.28;5025235;28;20515;-67
2023/09/23 08:33:53;;;;;;;5.93;2.80;;;;;;;16.24;100.00;101141.06;5025935;28;20021;-69
2023/09/23 08:36:19;;;;;;;6.05;3.22;;;;;;;16.75;100.00;101157.19;5025910;28;20033;-69
2023/09/23 08:38:45;;;;;;;5.72;2.92;;;;;;;16.90;100.00;101156.06;5025670;28;20073;-68
2023/09/23 08:41:14;;;;;;;7.82;3.03;;;;;;;17.21;100.00;101161.03;5025523;28;20036;-67
2023/09/23 08:43:42;;;;;;;5.32;2.78;;;;;;;17.51;98.74;101168.66;5025273;28;20116;-68
2023/09/23 08:46:11;;;;;;;6.00;3.25;;;;;;;18.09;98.77;101166.97;5024635;28;20037;-68
2023/09/23 08:48:38;;;;;;;4.40;2.72;;;;;;;17.88;91.18;101175.72;5025613;28;20025;-69
2023/09/23 08:51:06;;;;;;;4.97;2.35;;;;;;;17.62;93.89;101184.88;5025499;28;20022;-68
2023/09/23 08:53:39;;;;;;;5.00;2.80;;;;;;;17.07;93.80;101183.56;5025267;28;20281;-68
2023/09/23 08:56:08;;;;;;;5.78;2.78;;;;;;;16.49;96.97;101185.88;5025754;28;20017;-68
2023/09/23 08:58:33;;;;;;;5.50;2.85;;;;;;;16.59;100.00;101191.44;5025587;28;20160;-69
2023/09/23 09:01:01;;;;;;;8.63;3.42;;;;;;;16.83;97.46;101184.38;5024982;28;20021;-68
2023/09/23 09:03:26;;;;;;;6.20;3.00;;;;;;;16.95;99.79;101195.22;5024866;28;20026;-69
2023/09/23 09:05:52;;;;;;;6.45;2.90;;;;;;;17.48;99.27;101196.69;5025429;28;20361;-69
2023/09/23 09:08:18;;;;;;;6.18;2.70;;;;;;;18.47;94.15;101195.44;5025036;28;20034;-69
2023/09/23 09:10:44;;;;;;;7.40;3.10;;;;;;;19.09;91.45;101192.31;5025448;28;20041;-68
2023/09/23 09:13:10;;;;;;;4.70;2.35;;;;;;;19.15;86.90;101189.97;5025079;28;20029;-69
2023/09/23 09:15:37;;;;;;;5.93;2.40;;;;;;;19.22;87.59;101195.72;5024864;28;20029;-70
2023/09/23 09:18:04;;;;;;;4.55;2.30;;;;;;;19.06;85.71;101206.03;5025636;28;20382;-69
2023/09/23 09:20:30;;;;;;;6.07;2.50;;;;;;;18.58;89.13;101211.66;5024954;28;20096;-69
2023/09/23 09:22:56;;;;;;;3.17;2.22;;;;;;;18.65;87.87;101213.75;5024873;28;20076;-68
2023/09/23 09:25:22;;;;;;;6.18;2.30;;;;;;;18.32;85.40;101213.69;5024645;28;20143;-68
2023/09/23 09:27:49;;;;;;;7.03;2.53;;;;;;;17.55;87.45;101221.28;5024059;28;20435;-69
2023/09/23 09:30:14;;;;;;;5.25;2.38;;;;;;;17.06;90.45;101219.53;5024559;28;20022;-69
2023/09/23 09:32:42;;;;;;;4.38;2.60;;;;;;;16.88;91.23;101222.53;5025388;28;20276;-67
2023/09/23 09:35:14;;;;;;;6.20;2.50;;;;;;;16.69;95.84;101235.53;5024592;28;20029;-68
2023/09/23 09:37:44;;;;;;;6.45;2.38;;;;;;;16.35;94.95;101232.50;4997234;28;20026;-68
2023/09/23 09:40:23;;;;;;;5.30;2.58;;;;;;;16.06;96.33;101239.00;5023011;28;20074;-69
2023/09/23 09:42:55;;;;;;;6.35;2.17;;;;;;;15.55;98.46;101238.78;5024338;28;20033;-69
2023/09/23 09:45:21;;;;;;;5.68;2.67;;;;;;;15.44;100.00;101242.16;5024643;28;20018;-68
2023/09/23 09:47:51;;;;;;;6.85;2.75;;;;;;;15.31;100.00;101241.25;5024278;28;20092;-68
2023/09/23 09:50:17;;;;;;;4.50;2.40;;;;;;;15.14;100.00;101239.66;5024285;28;20049;-68
2023/09/23 09:52:43;;;;;;;7.75;2.40;;;;;;;15.06;100.00;101240.13;5024780;28;20084;-69
2023/09/23 09:55:18;;;;;;;4.22;2.50;;;;;;;15.14;100.00;101245.88;5024598;28;20304;-68
2023/09/23 09:57:50;;;;;;;4.93;2.42;;;;;;;15.16;100.00;101251.13;5024724;28;20026;-68
2023/09/23 10:02:49;;;;;;;5.60;2.38;;;;;;;15.20;100.00;101234.75;5024273;28;20033;-69
2023/09/23 10:05:17;;;;;;;5.03;2.33;;;;;;;15.30;100.00;101245.75;5024364;28;20459;-69
2023/09/23 10:07:56;;;;;;;5.18;2.35;;;;;;;15.40;100.00;101254.06;5023972;28;20018;-69
2023/09/23 10:10:48;;;;;;;5.68;2.20;;;;;;;15.39;100.00;101255.88;5015067;28;20032;-69
2023/09/23 10:13:22;;;;;;;7.03;2.25;;;;;;;15.78;100.00;101250.72;5010839;28;20037;-68
2023/09/23 10:15:48;;;;;;;6.68;2.65;;;;;;;16.71;99.04;101256.91;5024077;28;20047;-68
2023/09/23 10:18:16;;;;;;;4.95;2.35;;;;;;;17.42;93.47;101259.00;5024416;28;20017;-70
2023/09/23 10:20:54;;;;;;;6.47;2.53;;;;;;;18.10;89.95;101261.16;5024255;28;20040;-69
2023/09/23 10:23:21;;;;;;;6.97;1.98;;;;;;;19.31;84.73;101256.19;5023793;28;20467;-68
2023/09/23 10:25:51;;;;;;;7.10;2.53;;;;;;;19.21;80.68;101266.88;5003547;28;20029;-69
2023/09/23 10:28:24;;;;;;;6.45;2.25;;;;;;;18.86;80.39;101275.94;5016360;28;20087;-69
2023/09/23 10:31:04;;;;;;;7.40;2.00;;;;;;;19.96;78.07;101263.44;5006758;28;20577;-69
2023/09/23 10:33:31;;;;;;;5.18;1.92;;;;;;;20.06;72.22;101277.00;5002330;28;20033;-70
2023/09/23 10:36:00;;;;;;;4.78;1.80;;;;;;;18.87;76.95;101283.03;5024331;28;20563;-70
2023/09/23 10:38:34;;;;;;;4.35;1.58;;;;;;;18.25;80.99;101285.19;5023530;28;20025;-69
2023/09/23 10:41:01;;;;;;;5.90;2.22;;;;;;;17.71;82.77;101289.16;5023180;28;20041;-69
2023/09/23 10:43:27;;;;;;;5.72;2.80;;;;;;;17.61;85.43;101289.00;5024266;28;20029;-69
2023/09/23 10:45:54;;;;;;;5.32;2.60;;;;;;;17.91;82.13;101295.81;5024696;28;20029;-69
2023/09/23 10:48:19;;;;;;;5.13;2.10;;;;;;;18.39;81.92;101293.94;5024363;28;20112;-69
2023/09/23 10:50:46;;;;;;;3.90;1.90;;;;;;;19.28;77.93;101287.00;5010762;28;20017;-69
2023/09/23 10:53:11;;;;;;;6.10;2.10;;;;;;;19.98;75.62;101293.00;5023585;28;20410;-68
2023/09/23 10:55:39;;;;;;;4.28;1.92;;;;;;;20.07;70.61;101294.97;5022310;28;20039;-69
2023/09/23 10:58:06;;;;;;;3.75;1.58;;;;;;;20.36;71.67;101301.47;5022496;28;20086;-70
2023/09/23 11:00:33;;;;;;;5.32;2.28;;;;;;;20.26;70.71;101303.22;5022816;28;20013;-70
2023/09/23 11:03:06;;;;;;;7.07;1.73;;;;;;;19.61;73.91;101298.78;5022881;28;20124;-70
2023/09/23 11:05:32;;;;;;;4.43;1.90;;;;;;;19.15;75.17;101313.25;5022591;28;20367;-69
2023/09/23 11:07:57;;;;;;;5.30;1.77;;;;;;;18.25;76.49;101312.97;5004223;28;20051;-69
2023/09/23 11:10:26;;;;;;;6.38;2.13;;;;;;;17.77;81.35;101318.38;5021953;28;20056;-69
2023/09/23 11:12:55;;;;;;;3.75;2.00;;;;;;;17.64;84.13;101318.38;5021960;28;20213;-70
2023/09/23 11:15:21;;;;;;;5.45;2.25;;;;;;;17.86;88.84;101327.63;5022364;28;20037;-70
2023/09/23 11:17:46;;;;;;;4.07;2.65;;;;;;;17.75;86.34;101327.53;5022482;28;20361;-69
2023/09/23 11:20:12;;;;;;;4.93;2.42;;;;;;;17.60;85.18;101332.19;5022600;28;20028;-70